Time;durP1;ratioP1;P1;durP2;ratioP2;P2;SDS_P1;SDS_P2;PMS_P1;PMS_P2;Temp;Humidity;BMP_temperature;BMP_pressure;BME280_temperature;BME280_humidity;BME280_pressure;Samples;Min_cycle;Max_cycle;Signal;HPM_P1;HPM_P2
2024/02/08 00:01:58;;;;;;;5.10;3.08;;;5.10;63.70;;;;;;5038278;28;20510;-81
2024/02/08 00:04:24;;;;;;;5.72;3.58;;;5.10;63.50;;;;;;5044090;28;20132;-81
2024/02/08 00:06:50;;;;;;;5.03;3.25;;;5.10;63.50;;;;;;5022559;28;21023;-82
2024/02/08 00:09:16;;;;;;;5.38;2.92;;;5.00;63.30;;;;;;5040758;28;20041;-82
2024/02/08 00:11:42;;;;;;;3.92;2.83;;;5.10;63.40;;;;;;5039785;28;20067;-82
2024/02/08 00:14:08;;;;;;;3.70;2.70;;;5.00;63.10;;;;;;5024908;28;20029;-82
2024/02/08 00:16:37;;;;;;;5.55;3.40;;;5.10;63.10;;;;;;5042162;28;20025;-82
2024/02/08 00:19:03;;;;;;;6.55;3.10;;;5.00;63.00;;;;;;5039718;28;20041;-82
2024/02/08 00:21:31;;;;;;;5.28;3.17;;;5.10;62.80;;;;;;5021195;28;20044;-82
2024/02/08 00:23:57;;;;;;;5.38;3.20;;;5.00;62.70;;;;;;5041218;28;20083;-82
2024/02/08 00:26:23;;;;;;;5.13;3.42;;;5.00;62.60;;;;;;5039587;28;20493;-84
2024/02/08 00:28:49;;;;;;;5.20;3.38;;;5.00;62.60;;;;;;5039928;28;20063;-83
2024/02/08 00:31:15;;;;;;;5.55;3.17;;;5.00;63.20;;;;;;5042170;28;20096;-83
2024/02/08 00:33:41;;;;;;;3.88;2.95;;;5.00;63.00;;;;;;5040055;28;20033;-83
2024/02/08 00:36:11;;;;;;;6.10;3.70;;;5.00;62.70;;;;;;5040761;28;20040;-83
2024/02/08 00:38:37;;;;;;;4.55;3.38;;;5.00;62.70;;;;;;5037433;28;20043;-84
2024/02/08 00:41:03;;;;;;;8.32;3.15;;;5.00;62.80;;;;;;5040989;28;20171;-82
2024/02/08 00:43:29;;;;;;;5.13;3.47;;;5.00;62.70;;;;;;5038766;28;20029;-82
2024/02/08 00:45:55;;;;;;;4.80;3.28;;;5.00;62.50;;;;;;5027186;28;20424;-83
2024/02/08 00:48:22;;;;;;;4.53;3.10;;;5.00;62.30;;;;;;5026761;28;20059;-83
2024/02/08 00:50:48;;;;;;;4.75;3.55;;;5.00;62.20;;;;;;5020884;28;20033;-82
2024/02/08 00:53:15;;;;;;;5.15;3.50;;;5.00;62.10;;;;;;5024006;28;20381;-82
2024/02/08 00:55:43;;;;;;;5.07;3.50;;;4.90;62.00;;;;;;5025898;28;20072;-80
2024/02/08 00:58:11;;;;;;;5.57;3.33;;;4.90;61.90;;;;;;5016932;28;20094;-80
2024/02/08 01:00:37;;;;;;;5.38;3.38;;;4.90;63.20;;;;;;5039660;28;20087;-80
2024/02/08 01:03:07;;;;;;;4.18;3.08;;;4.90;64.90;;;;;;5025257;28;20043;-80
2024/02/08 01:05:33;;;;;;;6.07;3.47;;;4.90;66.60;;;;;;5039134;28;20824;-81
2024/02/08 01:08:00;;;;;;;5.80;3.08;;;4.90;68.30;;;;;;5040527;28;20036;-82
2024/02/08 01:10:27;;;;;;;4.03;3.03;;;4.90;68.90;;;;;;5037821;28;20037;-80
2024/02/08 01:12:54;;;;;;;6.32;3.25;;;5.00;69.20;;;;;;5039841;28;20052;-79
2024/02/08 01:15:21;;;;;;;5.68;3.20;;;5.00;70.00;;;;;;5028534;28;20039;-80
2024/02/08 01:17:51;;;;;;;3.65;2.70;;;5.00;70.40;;;;;;5022960;28;20409;-79
2024/02/08 01:20:22;;;;;;;3.65;2.95;;;5.00;70.70;;;;;;5040713;28;20037;-81
2024/02/08 01:22:52;;;;;;;5.15;3.28;;;5.00;70.90;;;;;;5055329;28;20025;-79
2024/02/08 01:25:18;;;;;;;4.05;2.80;;;5.00;71.10;;;;;;5040604;28;20032;-81
2024/02/08 01:27:44;;;;;;;5.00;3.30;;;5.00;71.20;;;;;;5038430;28;20082;-80
2024/02/08 01:30:13;;;;;;;4.47;3.28;;;5.00;71.30;;;;;;5026219;28;20068;-80
2024/02/08 01:32:42;;;;;;;3.78;2.97;;;5.00;71.30;;;;;;5025407;28;20040;-79
2024/02/08 01:35:11;;;;;;;5.75;3.20;;;5.00;71.50;;;;;;5019103;28;20025;-78
2024/02/08 01:37:38;;;;;;;4.15;2.95;;;5.00;71.40;;;;;;5037173;28;20523;-79
2024/02/08 01:40:07;;;;;;;6.05;3.03;;;5.10;71.50;;;;;;5036653;28;20056;-79
2024/02/08 01:42:34;;;;;;;4.80;3.05;;;5.10;71.80;;;;;;5037933;28;20060;-78
2024/02/08 01:45:29;;;;;;;4.40;3.25;;;5.10;71.80;;;;;;5039015;28;20079;-78
2024/02/08 01:48:15;;;;;;;4.57;3.35;;;5.10;71.90;;;;;;5041864;28;20427;-77
2024/02/08 01:51:02;;;;;;;5.55;3.15;;;5.10;72.00;;;;;;5038462;28;20752;-77
2024/02/08 01:53:28;;;;;;;4.18;2.88;;;5.10;72.20;;;;;;5038292;28;20542;-78
2024/02/08 01:55:57;;;;;;;4.03;2.80;;;5.10;72.30;;;;;;5038263;28;20037;-80
2024/02/08 01:58:24;;;;;;;6.93;2.88;;;5.10;72.30;;;;;;5037675;28;20043;-81
2024/02/08 02:00:56;;;;;;;4.15;2.90;;;5.10;72.40;;;;;;5041307;28;20496;-79
2024/02/08 02:03:25;;;;;;;3.50;2.38;;;5.10;72.40;;;;;;5038021;28;20033;-80
2024/02/08 02:05:51;;;;;;;4.90;3.15;;;5.20;72.50;;;;;;5037738;28;20074;-80
2024/02/08 02:08:21;;;;;;;6.15;3.45;;;5.20;72.60;;;;;;5039390;28;20036;-80
2024/02/08 02:10:56;;;;;;;4.05;2.95;;;5.20;72.50;;;;;;5040393;28;20790;-78
2024/02/08 02:13:23;;;;;;;5.28;3.13;;;5.20;72.60;;;;;;5041130;28;20075;-78
2024/02/08 02:15:49;;;;;;;4.57;2.67;;;5.20;72.60;;;;;;5040799;28;20111;-79
2024/02/08 02:18:17;;;;;;;8.43;3.35;;;5.20;72.40;;;;;;5041780;28;20134;-78
2024/02/08 02:20:43;;;;;;;6.07;3.47;;;5.20;72.20;;;;;;5041236;28;20040;-78
2024/02/08 02:23:09;;;;;;;4.07;3.30;;;5.20;72.00;;;;;;5043531;28;20045;-78
2024/02/08 02:25:38;;;;;;;5.72;3.50;;;5.20;72.10;;;;;;5041340;28;20487;-78
2024/02/08 02:28:08;;;;;;;7.47;3.53;;;5.20;72.00;;;;;;5045804;28;20037;-79
2024/02/08 02:30:35;;;;;;;4.95;3.15;;;5.20;71.80;;;;;;5041029;28;20044;-79
2024/02/08 02:33:03;;;;;;;4.78;3.17;;;5.20;71.70;;;;;;5041982;28;20051;-79
2024/02/08 02:35:30;;;;;;;5.93;3.17;;;5.20;71.70;;;;;;5039494;28;20825;-78
2024/02/08 02:38:02;;;;;;;6.78;3.45;;;5.20;71.60;;;;;;5028643;28;20041;-78
2024/02/08 02:40:31;;;;;;;4.15;3.10;;;5.20;71.70;;;;;;5041629;28;20124;-79
2024/02/08 02:42:58;;;;;;;6.07;3.20;;;5.20;71.50;;;;;;5039357;28;20053;-79
2024/02/08 02:45:28;;;;;;;4.65;3.15;;;5.20;71.50;;;;;;5040716;28;20025;-78
2024/02/08 02:47:56;;;;;;;4.95;3.30;;;5.20;71.50;;;;;;5042251;28;20029;-79
2024/02/08 02:50:22;;;;;;;4.30;2.72;;;5.20;71.60;;;;;;5040656;28;20037;-78
2024/02/08 02:52:50;;;;;;;4.30;2.88;;;5.20;72.20;;;;;;5042115;28;20128;-78
2024/02/08 02:55:19;;;;;;;4.68;3.10;;;5.20;71.60;;;;;;5040083;28;20203;-78
2024/02/08 02:57:46;;;;;;;4.43;3.08;;;5.20;71.70;;;;;;5040866;28;20055;-78
2024/02/08 03:00:21;;;;;;;5.05;2.95;;;5.20;71.50;;;;;;5041200;28;20029;-78
2024/02/08 03:02:49;;;;;;;5.57;3.30;;;5.20;71.40;;;;;;5041483;28;20033;-78
2024/02/08 03:05:17;;;;;;;4.20;3.17;;;5.20;71.50;;;;;;5041985;28;20447;-78
2024/02/08 03:07:45;;;;;;;3.75;2.60;;;5.20;71.20;;;;;;5042254;28;20029;-79
2024/02/08 03:10:12;;;;;;;4.47;3.10;;;5.20;71.10;;;;;;5045285;28;20133;-80
2024/02/08 03:12:40;;;;;;;3.88;2.97;;;5.20;71.20;;;;;;5041848;28;21170;-79
2024/02/08 03:15:09;;;;;;;4.47;3.22;;;5.10;71.00;;;;;;5041910;28;20051;-79
2024/02/08 03:17:38;;;;;;;4.60;2.63;;;5.20;71.00;;;;;;5039605;28;20045;-80
2024/02/08 03:20:07;;;;;;;4.22;3.28;;;5.20;70.90;;;;;;5024665;28;20523;-80
2024/02/08 03:22:34;;;;;;;3.95;3.30;;;5.20;71.00;;;;;;5024030;28;20037;-80
2024/02/08 03:25:04;;;;;;;5.65;3.50;;;5.20;70.90;;;;;;5028214;28;20040;-81
2024/02/08 03:27:33;;;;;;;5.60;2.95;;;5.10;70.80;;;;;;5032101;28;20037;-80
2024/02/08 03:30:04;;;;;;;4.57;3.35;;;5.20;71.00;;;;;;5041698;28;20020;-80
2024/02/08 03:32:31;;;;;;;4.50;3.08;;;5.10;70.90;;;;;;5040683;28;20037;-80
2024/02/08 03:34:57;;;;;;;4.05;2.75;;;5.10;71.00;;;;;;5039782;28;20068;-80
2024/02/08 03:37:23;;;;;;;5.60;3.30;;;5.10;70.80;;;;;;5040833;28;20092;-80
2024/02/08 03:39:50;;;;;;;4.88;3.20;;;5.10;70.90;;;;;;5039359;28;20107;-81
2024/02/08 03:42:17;;;;;;;4.35;3.03;;;5.10;71.00;;;;;;5041710;28;20090;-81
2024/02/08 03:44:43;;;;;;;4.63;2.70;;;5.10;71.00;;;;;;5041170;28;20510;-76
2024/02/08 03:47:09;;;;;;;4.82;2.65;;;5.10;71.00;;;;;;5038519;28;20029;-76
2024/02/08 03:49:36;;;;;;;5.50;3.25;;;5.10;70.90;;;;;;5038805;28;20037;-76
2024/02/08 03:52:02;;;;;;;3.65;2.47;;;5.10;70.90;;;;;;5042927;28;20033;-77
2024/02/08 03:54:30;;;;;;;4.70;3.40;;;5.10;70.80;;;;;;5025419;28;20464;-76
2024/02/08 03:56:59;;;;;;;4.15;2.85;;;5.10;70.60;;;;;;5041014;28;20029;-76
2024/02/08 03:59:28;;;;;;;4.43;3.10;;;5.10;70.50;;;;;;5039863;28;20033;-76
2024/02/08 04:02:05;;;;;;;3.88;2.90;;;5.10;70.30;;;;;;5041833;28;20033;-76
2024/02/08 04:04:59;;;;;;;4.45;2.90;;;5.10;70.30;;;;;;5037665;28;20037;-76
2024/02/08 04:07:45;;;;;;;4.28;3.20;;;5.10;70.10;;;;;;5038683;28;20498;-75
2024/02/08 04:53:30;;;;;;;5.07;2.92;;;5.10;70.20;;;;;;5039379;28;20407;-77
2024/02/08 04:54:33;;;;;;;4.95;3.10;;;5.00;71.00;;;;;;5037518;28;20480;-76
2024/02/08 04:56:59;;;;;;;5.22;3.03;;;5.00;70.20;;;;;;5039125;28;20024;-77
2024/02/08 04:59:28;;;;;;;5.18;3.40;;;5.00;70.20;;;;;;5038997;28;20450;-77
2024/02/08 05:01:54;;;;;;;6.57;3.67;;;5.00;70.20;;;;;;5038352;28;20529;-76
2024/02/08 05:04:20;;;;;;;5.55;3.40;;;4.90;70.30;;;;;;5038800;28;20048;-77
2024/02/08 05:06:47;;;;;;;6.30;3.55;;;5.00;70.40;;;;;;5021567;28;20033;-76
2024/02/08 05:09:20;;;;;;;5.35;3.60;;;4.90;71.50;;;;;;5036922;28;20040;-77
2024/02/08 05:11:48;;;;;;;4.93;3.60;;;5.00;73.40;;;;;;5039339;28;20033;-75
2024/02/08 05:14:15;;;;;;;5.18;3.45;;;5.00;74.70;;;;;;5037867;28;20064;-76
2024/02/08 05:16:41;;;;;;;6.43;3.80;;;5.00;75.80;;;;;;5037402;28;20063;-76
2024/02/08 05:19:09;;;;;;;6.32;4.00;;;5.00;76.50;;;;;;5040560;28;20060;-76
2024/02/08 05:21:43;;;;;;;8.07;4.55;;;5.00;76.80;;;;;;5037305;28;20399;-76
2024/02/08 05:24:13;;;;;;;5.30;3.83;;;5.00;77.00;;;;;;5039523;28;20037;-75
2024/02/08 05:29:24;;;;;;;16.10;4.28;;;5.00;77.20;;;;;;5037374;28;20072;-75
2024/02/08 05:31:51;;;;;;;5.75;3.35;;;5.10;77.20;;;;;;5025880;28;20068;-76
2024/02/08 05:34:18;;;;;;;6.32;3.47;;;5.10;77.30;;;;;;5039235;28;20037;-76
2024/02/08 05:36:44;;;;;;;6.30;3.67;;;5.10;77.30;;;;;;5038761;28;20045;-76
2024/02/08 05:39:11;;;;;;;6.63;3.97;;;5.10;77.50;;;;;;5039537;28;20029;-76
2024/02/08 05:41:37;;;;;;;5.13;3.20;;;5.10;77.40;;;;;;5038107;28;20033;-76
2024/02/08 05:44:07;;;;;;;4.03;3.28;;;5.20;77.50;;;;;;5038478;28;20067;-75
2024/02/08 05:46:39;;;;;;;5.72;3.33;;;5.20;77.60;;;;;;5041675;28;20124;-75
2024/02/08 05:49:13;;;;;;;6.57;3.75;;;5.20;77.70;;;;;;5039465;28;20033;-75
2024/02/08 05:51:51;;;;;;;5.07;3.47;;;5.20;77.70;;;;;;5045091;28;20041;-75
2024/02/08 05:54:31;;;;;;;5.13;3.38;;;5.20;77.70;;;;;;5042428;28;20123;-76
2024/02/08 05:57:03;;;;;;;5.50;3.35;;;5.20;77.80;;;;;;5042150;28;20021;-75
2024/02/08 05:59:32;;;;;;;5.57;3.95;;;5.20;77.60;;;;;;5044565;28;20029;-76
2024/02/08 06:02:01;;;;;;;4.38;3.05;;;5.30;77.70;;;;;;5042711;28;20116;-76
2024/02/08 06:04:34;;;;;;;5.60;3.63;;;5.30;77.50;;;;;;5040627;28;20127;-75
2024/02/08 06:07:12;;;;;;;6.10;3.80;;;5.40;77.40;;;;;;5040408;28;20142;-75
2024/02/08 06:10:07;;;;;;;6.68;4.20;;;5.40;77.30;;;;;;5040729;28;20048;-75
2024/02/08 06:12:43;;;;;;;5.80;3.87;;;5.40;77.30;;;;;;5041658;28;20025;-75
2024/02/08 06:15:46;;;;;;;;;;;5.40;77.20;;;;;;5041344;28;20025;-75
2024/02/08 06:18:05;;;;;;;5.28;3.58;;;5.40;77.00;;;;;;5041190;28;20464;-75
2024/02/08 06:20:40;;;;;;;4.90;3.53;;;5.50;77.00;;;;;;5041215;28;20041;-74
2024/02/08 06:23:26;;;;;;;7.15;3.85;;;5.50;77.10;;;;;;5041255;28;21091;-74
2024/02/08 06:28:49;;;;;;;6.25;3.55;;;5.60;77.40;;;;;;5040203;28;20037;-75
2024/02/08 06:31:18;;;;;;;6.72;4.15;;;5.60;76.90;;;;;;5044213;28;20391;-76
2024/02/08 06:36:57;;;;;;;4.97;3.72;;;5.60;76.80;;;;;;5041698;28;20029;-75
2024/02/08 06:39:33;;;;;;;6.22;3.33;;;5.70;76.90;;;;;;5044194;28;20056;-74
2024/02/08 06:45:24;;;;;;;5.05;3.25;;;5.70;76.90;;;;;;4960915;28;20405;-74
2024/02/08 07:42:41;;;;;;;5.35;3.83;;;6.60;74.20;;;;;;5038638;28;20052;-79
2024/02/08 07:45:12;;;;;;;6.38;3.30;;;6.70;74.60;;;;;;5038116;28;20039;-79
2024/02/08 07:47:58;;;;;;;5.28;3.65;;;6.70;74.80;;;;;;5039477;28;20036;-79
2024/02/08 07:50:35;;;;;;;5.93;3.85;;;6.80;74.80;;;;;;5041441;28;20510;-79
2024/02/08 07:53:08;;;;;;;8.30;3.65;;;6.80;74.60;;;;;;5038030;28;20037;-78
2024/02/08 07:58:07;;;;;;;5.10;3.72;;;6.90;75.00;;;;;;5039063;28;20049;-78
2024/02/08 08:03:31;;;;;;;5.30;3.15;;;7.00;74.40;;;;;;5039264;28;20033;-78
2024/02/08 08:05:56;;;;;;;5.93;3.30;;;7.00;74.10;;;;;;5037227;28;20538;-79
2024/02/08 08:08:28;;;;;;;4.82;2.90;;;7.00;74.70;;;;;;5013392;28;20032;-79
2024/02/08 08:10:56;;;;;;;6.55;3.20;;;7.00;74.70;;;;;;5041640;28;20045;-79
2024/02/08 08:13:50;;;;;;;4.30;3.47;;;7.00;74.50;;;;;;5054958;28;20043;-79
2024/02/08 08:19:07;;;;;;;4.65;2.95;;;7.10;74.00;;;;;;5039511;28;20531;-78
2024/02/08 08:24:26;;;;;;;5.05;2.90;;;7.10;74.30;;;;;;5038744;28;20021;-78
2024/02/08 08:27:06;;;;;;;4.25;2.90;;;7.20;74.30;;;;;;5038318;28;20025;-79
2024/02/08 08:29:42;;;;;;;4.28;3.28;;;7.20;74.60;;;;;;5040021;28;20111;-78
2024/02/08 08:37:44;;;;;;;6.22;3.03;;;7.30;74.80;;;;;;5036030;28;20032;-78
2024/02/08 08:40:25;;;;;;;4.55;2.83;;;7.30;75.10;;;;;;5039682;28;20503;-77
2024/02/08 08:42:54;;;;;;;3.78;2.60;;;7.30;75.00;;;;;;5039539;28;20051;-81
2024/02/08 08:45:21;;;;;;;3.13;2.55;;;7.40;74.80;;;;;;5037271;28;20579;-80
2024/02/08 08:48:00;;;;;;;5.20;3.13;;;7.40;75.00;;;;;;5038207;28;20115;-80
2024/02/08 08:50:50;;;;;;;7.82;4.60;;;7.50;74.70;;;;;;5040672;28;20129;-75
2024/02/08 08:53:19;;;;;;;11.77;7.00;;;7.50;85.20;;;;;;5038710;28;20033;-75
2024/02/08 08:55:50;;;;;;;13.60;7.68;;;7.80;90.20;;;;;;5034679;28;20033;-74
2024/02/08 09:01:11;;;;;;;9.85;5.45;;;8.30;90.30;;;;;;5037825;28;20523;-74
2024/02/08 09:03:40;;;;;;;7.13;4.90;;;8.50;88.10;;;;;;5040198;28;20044;-73
2024/02/08 09:06:12;;;;;;;7.95;4.40;;;8.70;89.40;;;;;;5037364;28;20038;-75
2024/02/08 09:08:54;;;;;;;8.60;4.55;;;8.90;87.10;;;;;;5038130;28;20047;-75
2024/02/08 09:11:25;;;;;;;7.05;4.70;;;8.80;81.60;;;;;;5037383;28;20098;-73
2024/02/08 09:13:55;;;;;;;6.60;4.40;;;8.80;79.80;;;;;;5037394;28;20033;-72
2024/02/08 09:21:39;;;;;;;6.45;3.58;;;8.80;76.20;;;;;;5039541;28;20583;-72
2024/02/08 09:24:07;;;;;;;5.28;3.60;;;8.80;75.10;;;;;;5041147;28;20036;-72
2024/02/08 09:27:00;;;;;;;5.07;3.22;;;8.70;74.40;;;;;;5039427;28;20041;-73
2024/02/08 09:29:27;;;;;;;4.95;3.80;;;8.70;73.90;;;;;;5041213;28;20030;-73
2024/02/08 09:31:58;;;;;;;4.20;3.28;;;8.70;73.50;;;;;;5040568;28;20147;-73
2024/02/08 09:34:37;;;;;;;4.85;3.40;;;8.70;73.20;;;;;;5041663;28;20040;-72
2024/02/08 09:37:07;;;;;;;4.63;3.40;;;8.60;72.60;;;;;;5039978;28;20034;-72
2024/02/08 09:42:37;;;;;;;5.43;3.77;;;8.60;71.60;;;;;;5041942;28;20095;-73
2024/02/08 09:45:18;;;;;;;5.25;3.13;;;8.60;70.40;;;;;;5043766;28;20290;-73
2024/02/08 09:47:54;;;;;;;4.00;3.03;;;8.50;69.70;;;;;;5039849;28;20135;-73
2024/02/08 09:50:35;;;;;;;3.70;2.80;;;8.50;69.30;;;;;;5039848;28;20423;-72
2024/02/08 09:53:19;;;;;;;6.05;3.58;;;8.50;68.80;;;;;;5040341;28;20529;-73
2024/02/08 09:55:48;;;;;;;4.47;2.97;;;8.50;68.90;;;;;;5038201;28;20575;-73
2024/02/08 09:58:30;;;;;;;4.57;3.10;;;8.50;68.60;;;;;;5037756;28;20056;-73
2024/02/08 10:01:01;;;;;;;3.50;2.80;;;8.40;67.90;;;;;;5038028;28;20049;-73
2024/02/08 10:03:36;;;;;;;5.07;3.20;;;8.40;68.10;;;;;;5038745;28;20545;-73
2024/02/08 10:06:12;;;;;;;5.93;3.10;;;8.40;67.90;;;;;;5039603;28;20028;-74
2024/02/08 10:08:51;;;;;;;4.35;3.00;;;8.40;67.70;;;;;;5040587;28;20563;-74
2024/02/08 10:11:36;;;;;;;3.80;2.70;;;8.40;67.20;;;;;;5039136;28;20047;-74
2024/02/08 10:14:02;;;;;;;3.10;2.80;;;8.40;67.50;;;;;;5040754;28;20167;-74
2024/02/08 10:19:03;;;;;;;3.92;3.00;;;8.30;66.90;;;;;;5085922;27;20501;-72
2024/02/08 10:21:35;;;;;;;4.40;3.10;;;8.30;67.60;;;;;;5034929;28;20033;-73
2024/02/08 10:26:47;;;;;;;3.80;2.78;;;8.30;67.30;;;;;;5018796;28;20061;-71
2024/02/08 10:29:14;;;;;;;3.17;2.70;;;8.30;66.90;;;;;;5028711;28;20026;-73
2024/02/08 10:31:40;;;;;;;4.25;2.70;;;8.30;66.60;;;;;;5033659;28;20132;-74
2024/02/08 10:34:10;;;;;;;2.90;2.47;;;8.20;66.40;;;;;;5031557;28;20088;-73
2024/02/08 10:36:59;;;;;;;3.67;2.75;;;8.20;66.00;;;;;;5030433;28;20038;-74
2024/02/08 10:39:25;;;;;;;3.45;2.50;;;8.30;66.00;;;;;;5035711;28;20102;-73
2024/02/08 10:41:58;;;;;;;3.47;2.60;;;8.20;66.20;;;;;;5037976;28;20040;-73
2024/02/08 10:44:32;;;;;;;3.35;2.40;;;8.30;66.60;;;;;;5037384;28;20037;-74
2024/02/08 10:47:06;;;;;;;2.70;2.28;;;8.20;66.80;;;;;;5032470;28;20033;-74
2024/02/08 10:49:41;;;;;;;4.43;2.45;;;8.20;66.70;;;;;;5034497;28;20095;-74
2024/02/08 10:52:12;;;;;;;3.90;2.92;;;8.20;66.60;;;;;;5035231;28;20580;-74
2024/02/08 10:54:48;;;;;;;3.80;2.40;;;8.20;66.30;;;;;;5032652;28;20660;-74
2024/02/08 10:57:39;;;;;;;3.85;2.85;;;8.20;66.50;;;;;;5035094;28;20465;-74
2024/02/08 11:00:49;;;;;;;4.10;2.55;;;8.20;66.20;;;;;;5051499;28;20056;-72
2024/02/08 11:03:08;;;;;;;2.95;2.30;;;8.20;65.90;;;;;;5054088;28;20125;-73
2024/02/08 11:05:48;;;;;;;2.78;2.42;;;8.20;65.60;;;;;;5053401;28;20045;-73
2024/02/08 11:08:24;;;;;;;5.65;2.58;;;8.20;65.60;;;;;;5054176;28;20037;-73
2024/02/08 11:10:54;;;;;;;3.63;2.60;;;8.20;65.60;;;;;;5056529;28;20150;-73
2024/02/08 11:13:29;;;;;;;3.13;2.40;;;8.20;65.90;;;;;;5057150;28;20037;-73
2024/02/08 11:16:15;;;;;;;3.63;2.60;;;8.20;65.60;;;;;;5055656;28;20037;-73
2024/02/08 11:18:52;;;;;;;3.22;2.53;;;8.20;66.00;;;;;;5053630;28;20047;-75
2024/02/08 11:21:28;;;;;;;3.03;2.53;;;8.20;65.90;;;;;;5054923;28;20087;-73
2024/02/08 11:23:57;;;;;;;3.67;2.70;;;8.10;65.40;;;;;;5034353;28;20042;-74
2024/02/08 11:26:26;;;;;;;4.00;2.70;;;8.10;64.70;;;;;;5032694;28;20238;-73
2024/02/08 11:29:05;;;;;;;3.47;2.58;;;8.10;64.30;;;;;;5028305;28;20485;-73
2024/02/08 11:31:41;;;;;;;3.70;2.58;;;8.10;64.20;;;;;;5020990;28;20057;-74
2024/02/08 11:34:14;;;;;;;4.00;2.55;;;8.10;64.40;;;;;;5019902;28;20476;-74
2024/02/08 11:36:52;;;;;;;3.60;2.67;;;8.10;64.20;;;;;;5034210;28;20060;-74
2024/02/08 11:39:26;;;;;;;3.70;2.47;;;8.10;64.20;;;;;;5022010;28;20120;-74
2024/02/08 11:41:57;;;;;;;4.25;2.88;;;8.10;64.10;;;;;;5003201;28;20056;-74
2024/02/08 11:44:26;;;;;;;3.53;2.58;;;8.10;64.50;;;;;;5023578;28;20129;-73
2024/02/08 11:46:58;;;;;;;3.42;2.10;;;8.10;64.70;;;;;;5023501;28;20056;-73
2024/02/08 11:52:19;;;;;;;3.45;2.58;;;8.10;63.70;;;;;;5019395;28;20030;-74
2024/02/08 11:55:05;;;;;;;3.85;2.70;;;8.20;63.80;;;;;;5011835;28;20037;-73
2024/02/08 11:57:40;;;;;;;3.45;2.30;;;8.20;63.70;;;;;;5019438;28;20044;-74
2024/02/08 12:00:17;;;;;;;3.53;2.50;;;8.10;63.30;;;;;;5019014;28;20053;-73
2024/02/08 12:02:47;;;;;;;3.58;2.70;;;8.20;63.00;;;;;;5021614;28;20037;-73
2024/02/08 12:05:20;;;;;;;4.43;2.70;;;8.10;63.40;;;;;;5020261;28;20034;-73
2024/02/08 12:07:46;;;;;;;2.90;2.30;;;8.10;62.90;;;;;;5020624;28;20034;-72
2024/02/08 12:10:16;;;;;;;3.67;2.15;;;8.10;62.80;;;;;;5020110;28;20688;-74
2024/02/08 12:12:45;;;;;;;3.53;2.55;;;8.10;62.80;;;;;;5019765;28;20136;-75
2024/02/08 12:15:12;;;;;;;2.83;2.17;;;8.10;62.60;;;;;;5019830;28;20030;-73
2024/02/08 12:17:40;;;;;;;2.70;2.22;;;8.10;62.80;;;;;;5017652;28;20045;-72
2024/02/08 12:20:10;;;;;;;3.60;2.75;;;8.10;63.30;;;;;;5031489;28;20029;-73
2024/02/08 12:22:41;;;;;;;3.30;2.55;;;8.10;62.80;;;;;;5020370;28;20042;-74
2024/02/08 12:25:15;;;;;;;3.05;2.03;;;8.10;62.70;;;;;;5020958;28;20057;-74
2024/02/08 12:27:58;;;;;;;4.13;2.58;;;8.10;63.00;;;;;;5018790;28;20034;-74
2024/02/08 12:30:33;;;;;;;3.47;2.30;;;8.10;62.70;;;;;;5018424;28;20030;-75
2024/02/08 12:33:07;;;;;;;3.75;2.33;;;8.10;63.10;;;;;;5022548;28;20029;-75
2024/02/08 12:35:40;;;;;;;2.75;2.20;;;8.00;62.80;;;;;;5019785;28;20053;-75
2024/02/08 12:38:10;;;;;;;2.33;2.10;;;8.00;62.40;;;;;;5013527;28;20056;-76
2024/02/08 12:40:38;;;;;;;2.80;2.20;;;8.00;62.60;;;;;;5016843;28;20056;-74
2024/02/08 12:43:08;;;;;;;2.70;2.25;;;8.00;62.50;;;;;;5018044;28;20068;-74
2024/02/08 12:45:34;;;;;;;3.58;2.65;;;8.00;62.70;;;;;;5030374;28;20049;-76
2024/02/08 12:48:04;;;;;;;3.30;2.40;;;8.00;62.70;;;;;;5018053;28;20036;-74
2024/02/08 12:50:37;;;;;;;2.75;2.15;;;8.00;62.50;;;;;;5020282;28;20065;-74
2024/02/08 12:53:07;;;;;;;4.28;2.50;;;7.90;63.20;;;;;;5018747;28;20820;-74
2024/02/08 12:55:52;;;;;;;3.17;2.35;;;7.90;63.50;;;;;;5020018;28;20090;-74
2024/02/08 12:58:18;;;;;;;5.07;2.63;;;7.90;64.10;;;;;;5018210;28;20048;-74
2024/02/08 13:00:58;;;;;;;4.80;2.53;;;7.90;64.30;;;;;;5018428;28;20038;-73
2024/02/08 13:03:26;;;;;;;4.97;2.45;;;7.90;64.50;;;;;;5020045;28;20040;-74
2024/02/08 13:05:52;;;;;;;5.35;2.92;;;7.90;65.30;;;;;;5018421;28;20032;-73
2024/02/08 13:08:22;;;;;;;3.63;2.50;;;7.90;65.40;;;;;;5015698;28;20385;-74
2024/02/08 13:10:56;;;;;;;4.43;2.30;;;7.90;64.90;;;;;;5018337;28;20117;-75
2024/02/08 13:13:23;;;;;;;3.63;2.50;;;7.90;65.10;;;;;;5018901;28;20029;-73
2024/02/08 13:15:58;;;;;;;4.00;2.60;;;7.90;65.10;;;;;;5017541;28;20026;-74
2024/02/08 13:18:31;;;;;;;3.85;2.25;;;7.90;65.60;;;;;;5031262;28;20096;-73
2024/02/08 13:20:58;;;;;;;3.22;2.38;;;7.90;65.80;;;;;;5019196;28;20538;-74
2024/02/08 13:23:27;;;;;;;3.50;2.70;;;7.80;66.00;;;;;;5020451;28;20038;-74
2024/02/08 13:25:56;;;;;;;3.88;2.47;;;7.80;66.10;;;;;;5017511;28;20060;-75
2024/02/08 13:28:40;;;;;;;4.88;2.50;;;7.80;66.20;;;;;;5019400;28;20217;-74
2024/02/08 13:31:06;;;;;;;4.10;2.45;;;7.80;66.30;;;;;;5017634;28;20037;-74
2024/02/08 13:33:34;;;;;;;2.70;2.35;;;7.80;66.30;;;;;;5019647;28;20029;-75
2024/02/08 13:36:08;;;;;;;3.33;2.80;;;7.80;66.60;;;;;;5019829;28;20099;-74
2024/02/08 13:38:41;;;;;;;4.38;2.53;;;7.80;66.80;;;;;;5018264;28;20081;-75
2024/02/08 13:41:26;;;;;;;4.25;2.35;;;7.80;67.00;;;;;;5019605;28;20080;-75
2024/02/08 13:43:52;;;;;;;3.72;2.35;;;7.80;67.10;;;;;;5020044;28;20062;-75
2024/02/08 13:46:18;;;;;;;2.90;2.22;;;7.70;67.00;;;;;;5019856;28;20554;-74
2024/02/08 13:48:44;;;;;;;4.70;2.50;;;7.70;66.90;;;;;;5018233;28;20473;-75
2024/02/08 13:51:10;;;;;;;4.20;2.95;;;7.70;66.90;;;;;;5009094;28;20503;-76
2024/02/08 13:53:37;;;;;;;4.55;2.40;;;7.70;66.80;;;;;;5019204;28;20050;-75
2024/02/08 13:56:05;;;;;;;3.80;2.80;;;7.60;67.00;;;;;;5016341;28;20044;-75
2024/02/08 13:58:36;;;;;;;3.20;2.35;;;7.70;67.20;;;;;;5018558;28;20068;-74
2024/02/08 14:01:03;;;;;;;3.28;2.20;;;7.60;67.40;;;;;;5018396;28;20415;-74
2024/02/08 14:03:30;;;;;;;2.97;2.38;;;7.60;67.50;;;;;;5016201;28;20037;-75
2024/02/08 14:05:56;;;;;;;4.43;2.70;;;7.60;67.40;;;;;;5016574;28;20120;-75
2024/02/08 14:08:27;;;;;;;4.00;2.40;;;7.60;67.80;;;;;;5019687;28;20125;-75
2024/02/08 14:11:00;;;;;;;3.28;2.50;;;7.60;67.80;;;;;;5030784;28;20032;-76
2024/02/08 14:13:29;;;;;;;3.97;2.17;;;7.50;67.90;;;;;;5017494;28;20030;-74
2024/02/08 14:16:00;;;;;;;4.18;2.60;;;7.50;67.70;;;;;;5018934;28;20041;-74
2024/02/08 14:18:34;;;;;;;3.25;2.20;;;7.50;67.90;;;;;;5017914;28;20053;-72
2024/02/08 14:21:01;;;;;;;3.67;2.28;;;7.50;67.60;;;;;;5019100;28;20740;-72
2024/02/08 14:26:57;;;;;;;2.55;2.13;;;7.40;67.00;;;;;;5033205;28;20026;-73
2024/02/08 14:28:59;;;;;;;3.83;2.35;;;7.40;67.00;;;;;;5007946;28;20036;-72
2024/02/08 14:31:25;;;;;;;4.68;2.80;;;7.40;66.70;;;;;;5018213;28;20044;-73
2024/02/08 14:33:51;;;;;;;3.67;3.03;;;7.40;66.70;;;;;;5004452;28;20033;-73
2024/02/08 14:36:18;;;;;;;5.57;3.22;;;7.30;66.80;;;;;;5017977;28;20555;-77
2024/02/08 14:38:45;;;;;;;5.07;3.20;;;7.30;67.30;;;;;;5017307;28;20041;-75
2024/02/08 14:41:32;;;;;;;4.70;3.03;;;7.30;67.90;;;;;;5019796;28;20575;-77
2024/02/08 14:44:16;;;;;;;4.03;3.25;;;7.30;68.60;;;;;;5018500;28;20532;-77
2024/02/08 14:46:45;;;;;;;3.90;2.85;;;7.30;69.30;;;;;;5014645;28;20034;-76
2024/02/08 14:49:17;;;;;;;5.43;3.05;;;7.30;69.70;;;;;;5018165;28;20038;-76
2024/02/08 14:51:47;;;;;;;3.58;2.55;;;7.30;70.10;;;;;;5020196;28;20034;-77
2024/02/08 14:54:17;;;;;;;6.70;2.90;;;7.20;70.70;;;;;;5017344;28;20037;-77
2024/02/08 14:56:43;;;;;;;4.88;2.70;;;7.20;70.90;;;;;;5016712;28;20033;-76
2024/02/08 14:59:13;;;;;;;5.22;3.38;;;7.20;71.30;;;;;;5017782;28;20087;-76
2024/02/08 15:01:39;;;;;;;5.03;2.90;;;7.20;71.30;;;;;;5017118;28;20061;-78
2024/02/08 15:04:16;;;;;;;3.35;2.58;;;7.20;71.40;;;;;;5011375;28;20087;-75
2024/02/08 15:12:27;;;;;;;4.53;2.75;;;7.10;71.00;;;;;;5010316;28;20030;-75
2024/02/08 15:15:03;;;;;;;3.78;2.65;;;7.10;71.40;;;;;;5033245;28;20044;-75
2024/02/08 15:17:30;;;;;;;4.72;2.95;;;7.10;71.20;;;;;;5029586;28;20523;-77
2024/02/08 15:20:36;;;;;;;4.80;2.85;;;7.10;71.00;;;;;;5044190;28;20041;-75
2024/02/08 15:25:16;;;;;;;3.25;2.28;;;7.10;71.90;;;;;;5032680;28;20052;-75
2024/02/08 15:33:28;;;;;;;3.20;2.25;;;7.10;70.40;;;;;;5047841;28;20659;-75
2024/02/08 15:35:59;;;;;;;3.33;2.45;;;7.00;69.60;;;;;;5043588;28;20039;-74
2024/02/08 15:40:55;;;;;;;4.10;2.63;;;7.00;68.70;;;;;;5033251;28;20088;-74
2024/02/08 15:43:25;;;;;;;5.10;2.45;;;6.90;68.30;;;;;;5044177;28;20129;-74
2024/02/08 15:45:54;;;;;;;4.05;2.20;;;6.90;68.00;;;;;;5039287;28;20033;-76
2024/02/08 15:48:44;;;;;;;4.22;2.97;;;6.90;68.10;;;;;;5040956;28;20029;-75
2024/02/08 15:51:12;;;;;;;4.35;2.50;;;6.80;68.40;;;;;;5039477;28;20696;-75
2024/02/08 15:53:48;;;;;;;5.28;2.80;;;6.80;68.20;;;;;;5041196;28;20072;-75
2024/02/08 15:56:22;;;;;;;3.78;2.22;;;6.80;68.70;;;;;;5037446;28;20164;-75
